الصفحة الرئيسية
METAR-TAF:

METAR-TAF

مطار :

وارسو, بولندا

مطار وارسو فريدريك شوبان

دائرة عرض: 52-10N, خط طول: 020-58E, ارتفاع: 106 متر

مراقبة الطقس الحالي

تاريخ ووقت الإصدار 28 دقيقة قبل الساعة 08:00UTC
ريح 8 عقدة من الشرق/الشمال الشرقي
درجة الحرارة -5°درجة مئوية
الرطوبة 68%
ضغط 1026 hPa
الرؤية 10 كم أو أكثر
الغيوم لا تقل 1500 م ولا وجود لمزنة ركامية السحاب الأسود

METAR: EPWA 220800Z 07008KT CAVOK M05/M10 Q1026 NOSIG

زمن: 09:28 (08:28 UTC)

توقعات

تاريخ ووقت الإصدار 2ساعات و 58 دقيقة قبل الساعة 05:30UTC
التوقعات صالحة من22 الساعة 06 UTC إلى 23 الساعة 06 UTC
ريح 6 عقدة من الشرق/الشمال الشرقي
الرؤية 10 كم أو أكثر
الغيوم لا تقل 1500 م ولا وجود لمزنة ركامية السحاب الأسود
نظرية الاحتمالات 40% :
مؤقت
من 23 الساعة 02 UTC إلى 23 الساعة 06 UTC
غيوم مفككة على ارتفاع 700 قدم

TAF: EPWA 220530Z 2206/2306 06006KT CAVOK PROB40 TEMPO 2302/2306 BKN007

أرصاد الطقس والتوقعات من أكثر من 4000 مطار (تقارير الطقس للمطار METAR والتنبؤ بالطقس بالمطارTAF).

المحطات المتاحة هي النقط الصفراء والحمراء على الخريطة.

حرك المؤشر فوق النقطة لمعرفة اسم المحطة.

ثم انقر لمعرفة أرصاد وتوقعات الطقس.

لتغيير الخارطة: اضغط على الأزرار الخضراء مع رمز الصليب الأسود للتكبير. على الزر الأخضر مع شرطة للتصغير، أو على الأسهم الخضراء للخرائط المجاورة.


METAR-TAF: